| time (UTC) | temp C | wind direction | speed KPH | gust KPH | rain 1hr cm | rain 24hr cm | rain mn cm | humidity % | barometer mb |
| 20260507201522 | 14 | 296 | 8.0 | 12.9 | 0.00 | 0.53 | 0.43 | 71 | 1008.8 |
| 20260507200020 | 13 | 244 | 6.4 | 17.7 | 0.03 | 0.53 | 0.43 | 71 | 1008.7 |
| 20260507194519 | 14 | 299 | 8.0 | 16.1 | 0.03 | 0.53 | 0.43 | 71 | 1008.9 |
| 20260507193019 | 14 | 308 | 6.4 | 12.9 | 0.03 | 0.53 | 0.43 | 71 | 1009.3 |
| 20260507191518 | 13 | 262 | 9.7 | 14.5 | 0.03 | 0.53 | 0.43 | 71 | 1009.6 |
| 20260507190018 | 13 | 189 | 4.8 | 14.5 | 0.00 | 0.51 | 0.41 | 70 | 1009.7 |
| 20260507184516 | 12 | 246 | 6.4 | 14.5 | 0.00 | 0.51 | 0.41 | 71 | 1009.8 |
| 20260507183017 | 12 | 192 | 8.0 | 12.9 | 0.00 | 0.51 | 0.41 | 69 | 1009.9 |
| 20260507181517 | 12 | 203 | 9.7 | 14.5 | 0.00 | 0.51 | 0.41 | 71 | 1010.1 |
| 20260507180023 | 12 | 232 | 4.8 | 11.3 | 0.00 | 0.51 | 0.41 | 72 | 1010.1 |
| 20260507174515 | 12 | 202 | 6.4 | 11.3 | 0.00 | 0.51 | 0.41 | 72 | 1010.3 |
| 20260507173027 | 12 | 194 | 6.4 | 11.3 | 0.00 | 0.51 | 0.41 | 72 | 1010.4 |
| 20260507171513 | 12 | 121 | 3.2 | 12.9 | 0.00 | 0.51 | 0.41 | 72 | 1010.5 |
| 20260507170012 | 12 | 189 | 3.2 | 9.7 | 0.00 | 0.51 | 0.41 | 71 | 1010.8 |
| 20260507164510 | 12 | 191 | 1.6 | 9.7 | 0.08 | 0.51 | 0.41 | 69 | 1011.0 |
| 20260507163010 | 11 | 169 | 3.2 | 8.0 | 0.10 | 0.51 | 0.41 | 64 | 1011.1 |
| 20260507161508 | 11 | 153 | 3.2 | 8.0 | 0.10 | 0.51 | 0.41 | 66 | 1011.5 |
| 20260507160006 | 11 | 153 | 1.6 | 4.8 | 0.10 | 0.51 | 0.41 | 68 | 1011.6 |
| 20260507154505 | 12 | 150 | 0.0 | 6.4 | 0.03 | 0.43 | 0.33 | 71 | 1011.7 |
| 20260507153003 | 12 | 115 | 0.0 | 11.3 | 0.00 | 0.41 | 0.30 | 68 | 1011.4 |
| 20260507151501 | 11 | 100 | 3.2 | 8.0 | 0.00 | 0.41 | 0.30 | 67 | 1011.4 |
| 20260507150059 | 11 | 87 | 6.4 | 12.9 | 0.00 | 0.41 | 0.30 | 66 | 1011.4 |
| 20260507144556 | 11 | 105 | 3.2 | 9.7 | 0.00 | 0.41 | 0.30 | 63 | 1011.7 |
| 20260507143100 | 11 | 101 | 3.2 | 11.3 | 0.00 | 0.41 | 0.30 | 63 | 1012.0 |
| 20260507141554 | 11 | 126 | 6.4 | 12.9 | 0.00 | 0.41 | 0.30 | 67 | 1012.0 |
| 20260507140052 | 11 | 99 | 4.8 | 14.5 | 0.00 | 0.41 | 0.30 | 64 | 1012.2 |
| 20260507134550 | 11 | 131 | 6.4 | 14.5 | 0.00 | 0.53 | 0.30 | 61 | 1012.3 |
| 20260507133101 | 11 | 114 | 8.0 | 14.5 | 0.00 | 0.53 | 0.30 | 58 | 1012.2 |
| 20260507131551 | 11 | 109 | 8.0 | 16.1 | 0.00 | 0.53 | 0.30 | 52 | 1012.1 |
| 20260507130058 | 11 | 81 | 9.7 | 14.5 | 0.00 | 0.53 | 0.30 | 43 | 1011.9 |
| 20260507124540 | 11 | 115 | 4.8 | 8.0 | 0.00 | 0.61 | 0.30 | 36 | 1011.8 |
| 20260507123040 | 11 | 88 | 6.4 | 11.3 | 0.00 | 0.61 | 0.30 | 36 | 1012.0 |
| 20260507121537 | 11 | 109 | 4.8 | 11.3 | 0.00 | 0.61 | 0.30 | 34 | 1011.6 |
| 20260507120048 | 11 | 112 | 4.8 | 8.0 | 0.00 | 0.61 | 0.30 | 33 | 1011.4 |
| 20260507114550 | 11 | 121 | 3.2 | 8.0 | 0.00 | 0.61 | 0.30 | 32 | 1011.6 |
| 20260507113030 | 11 | 107 | 6.4 | 9.7 | 0.00 | 0.61 | 0.30 | 32 | 1011.2 |
| 20260507111533 | 11 | 83 | 4.8 | 11.3 | 0.00 | 0.61 | 0.30 | 30 | 1011.0 |
| 20260507110025 | 11 | 92 | 4.8 | 9.7 | 0.00 | 0.61 | 0.30 | 30 | 1010.9 |
| 20260507104524 | 11 | 135 | 1.6 | 4.8 | 0.00 | 0.66 | 0.30 | 29 | 1010.9 |
| 20260507103023 | 11 | 135 | 0.0 | 4.8 | 0.00 | 0.66 | 0.30 | 30 | 1011.1 |
| 20260507101523 | 11 | 135 | 3.2 | 4.8 | 0.00 | 0.66 | 0.30 | 30 | 1010.9 |
| 20260507100021 | 11 | 135 | 1.6 | 4.8 | 0.00 | 0.66 | 0.30 | 31 | 1010.7 |
| 20260507094520 | 11 | 135 | 0.0 | 4.8 | 0.00 | 0.66 | 0.30 | 31 | 1010.6 |
| 20260507093025 | 11 | 135 | 0.0 | 3.2 | 0.00 | 0.66 | 0.30 | 31 | 1010.7 |
| 20260507091526 | 11 | 135 | 0.0 | 1.6 | 0.00 | 0.66 | 0.30 | 32 | 1010.7 |
| 20260507090023 | 11 | 135 | 3.2 | 6.4 | 0.00 | 0.66 | 0.30 | 32 | 1010.5 |
| 20260507084518 | 11 | 136 | 1.6 | 6.4 | 0.00 | 0.66 | 0.30 | 32 | 1010.2 |
| 20260507083015 | 11 | 120 | 3.2 | 11.3 | 0.00 | 0.66 | 0.30 | 31 | 1010.1 |
| 20260507081513 | 12 | 144 | 3.2 | 8.0 | 0.00 | 0.66 | 0.30 | 31 | 1010.3 |
| 20260507080012 | 12 | 113 | 6.4 | 11.3 | 0.00 | 0.66 | 0.30 | 31 | 1010.1 |
| 20260507074509 | 12 | 146 | 4.8 | 9.7 | 0.00 | 0.66 | 0.30 | 30 | 1010.1 |
| 20260507073010 | 12 | 124 | 8.0 | 16.1 | 0.00 | 0.66 | 0.30 | 30 | 1009.4 |
| 20260507071506 | 12 | 88 | 8.0 | 20.9 | 0.00 | 0.66 | 0.30 | 29 | 1009.5 |
| 20260507070008 | 12 | 127 | 9.7 | 17.7 | 0.00 | 0.66 | 0.30 | 28 | 1009.2 |
| 20260507064605 | 13 | 106 | 8.0 | 14.5 | 0.00 | 0.66 | 0.30 | 27 | 1009.4 |
| 20260507063106 | 13 | 123 | 4.8 | 16.1 | 0.00 | 0.66 | 0.30 | 26 | 1009.6 |
| 20260507061557 | 13 | 111 | 8.0 | 17.7 | 0.00 | 0.66 | 0.30 | 26 | 1009.4 |
| 20260507060056 | 13 | 116 | 11.3 | 20.9 | 0.00 | 0.66 | 0.30 | 26 | 1009.8 |
| 20260507054552 | 13 | 92 | 12.9 | 22.5 | 0.03 | 0.66 | 0.30 | 25 | 1009.9 |
| 20260507053044 | 14 | 129 | 11.3 | 24.1 | 0.05 | 0.66 | 0.30 | 24 | 1009.3 |
| 20260507051537 | 15 | 86 | 8.0 | 17.7 | 0.30 | 0.66 | 0.30 | 23 | 1008.9 |
| 20260507050033 | 15 | 142 | 6.4 | 12.9 | 0.30 | 0.66 | 0.30 | 23 | 1008.1 |
| 20260507044526 | 15 | 96 | 4.8 | 8.0 | 0.30 | 0.64 | 0.28 | 23 | 1009.4 |
| 20260507043025 | 16 | 157 | 6.4 | 19.3 | 0.33 | 0.61 | 0.25 | 25 | 1008.5 |
| 20260507041517 | 16 | 89 | 11.3 | 19.3 | 0.10 | 0.36 | 0.00 | 25 | 1009.3 |
| 20260507040010 | 16 | 59 | 6.4 | 11.3 | 0.10 | 0.36 | 0.00 | 27 | 1009.1 |
| 20260507034509 | 17 | 103 | 6.4 | 11.3 | 0.08 | 0.33 | 0.33 | 25 | 1009.4 |
| 20260507033007 | 17 | 88 | 8.0 | 14.5 | 0.03 | 0.28 | 0.28 | 25 | 1009.4 |
| 20260507031510 | 17 | 96 | 6.4 | 12.9 | 0.00 | 0.25 | 0.25 | 24 | 1008.8 |
| 20260507030006 | 17 | 115 | 0.0 | 1.6 | 0.00 | 0.25 | 0.25 | 25 | 1008.8 |
| 20260507024509 | 17 | 115 | 1.6 | 4.8 | 0.00 | 0.25 | 0.25 | 27 | 1008.8 |
| 20260507023004 | 17 | 150 | 0.0 | 3.2 | 0.00 | 0.25 | 0.25 | 34 | 1008.6 |
| 20260507021503 | 17 | 305 | 0.0 | 0.0 | 0.00 | 0.25 | 0.25 | 40 | 1008.6 |
| 20260507020003 | 18 | 305 | 0.0 | 1.6 | 0.00 | 0.25 | 0.25 | 45 | 1008.3 |
| 20260507014502 | 18 | 305 | 0.0 | 1.6 | 0.00 | 0.25 | 0.25 | 46 | 1007.7 |
| 20260507013004 | 18 | 307 | 0.0 | 3.2 | 0.00 | 0.25 | 0.25 | 48 | 1008.0 |
| 20260507011504 | 18 | 308 | 0.0 | 9.7 | 0.00 | 0.25 | 0.25 | 49 | 1008.3 |
| 20260507010002 | 18 | 325 | 1.6 | 6.4 | 0.00 | 0.25 | 0.25 | 48 | 1008.6 |
| 20260507004607 | 18 | 317 | 1.6 | 9.7 | 0.00 | 0.25 | 0.25 | 54 | 1008.2 |
| 20260507003100 | 19 | 298 | 6.4 | 11.3 | 0.00 | 0.25 | 0.25 | 54 | 1008.0 |
| 20260507001601 | 19 | 278 | 3.2 | 9.7 | 0.00 | 0.25 | 0.25 | 58 | 1007.8 |
| 20260507000101 | 20 | 293 | 3.2 | 12.9 | 0.00 | 0.25 | 0.25 | 59 | 1007.6 |
| 20260506234558 | 20 | 259 | 6.4 | 14.5 | 0.00 | 0.25 | 0.25 | 60 | 1007.6 |
| 20260506233110 | 20 | 294 | 11.3 | 17.7 | 0.00 | 0.25 | 0.25 | 62 | 1007.7 |
| 20260506231602 | 21 | 266 | 9.7 | 17.7 | 0.00 | 0.25 | 0.25 | 63 | 1007.5 |
| 20260506230057 | 20 | 294 | 8.0 | 17.7 | 0.00 | 0.25 | 0.25 | 63 | 1007.1 |
| 20260506224556 | 21 | 260 | 6.4 | 19.3 | 0.00 | 0.25 | 0.25 | 64 | 1007.2 |
| 20260506223057 | 21 | 294 | 11.3 | 19.3 | 0.00 | 0.25 | 0.25 | 65 | 1007.4 |
| 20260506221604 | 21 | 260 | 8.0 | 24.1 | 0.00 | 0.25 | 0.25 | 65 | 1007.2 |
| 20260506220055 | 21 | 250 | 8.0 | 17.7 | 0.00 | 0.25 | 0.25 | 65 | 1007.2 |
| 20260506214555 | 21 | 239 | 9.7 | 20.9 | 0.00 | 0.25 | 0.25 | 65 | 1007.1 |
| 20260506213111 | 21 | 266 | 9.7 | 17.7 | 0.00 | 0.25 | 0.25 | 65 | 1007.1 |
| 20260506211553 | 21 | 245 | 9.7 | 20.9 | 0.00 | 0.25 | 0.25 | 65 | 1007.0 |
| 20260506210050 | 21 | 250 | 9.7 | 22.5 | 0.00 | 0.25 | 0.25 | 64 | 1006.9 |
| 20260506204548 | 20 | 242 | 12.9 | 19.3 | 0.00 | 0.25 | 0.25 | 62 | 1006.8 |
| 20260506203046 | 20 | 267 | 12.9 | 20.9 | 0.00 | 0.25 | 0.25 | 63 | 1006.8 |